sensor_id;sensor_type;location;lat;lon;timestamp;P1;durP1;ratioP1;P2;durP2;ratioP2
49582;SDS011;36329;48.816;44.624;2023-02-28T00:03:00;21.9;;;13.3;;
49582;SDS011;36329;48.816;44.624;2023-02-28T00:06:02;23.6;;;13.4;;
49582;SDS011;36329;48.816;44.624;2023-02-28T00:09:13;24.9;;;13.5;;
49582;SDS011;36329;48.816;44.624;2023-02-28T00:12:15;23;;;13.2;;
49582;SDS011;36329;48.816;44.624;2023-02-28T00:15:17;22.9;;;13.6;;
49582;SDS011;36329;48.816;44.624;2023-02-28T00:18:19;21.9;;;13;;
49582;SDS011;36329;48.816;44.624;2023-02-28T00:21:21;19.3;;;13;;
49582;SDS011;36329;48.816;44.624;2023-02-28T00:24:24;21.8;;;12.4;;
49582;SDS011;36329;48.816;44.624;2023-02-28T00:27:32;21.9;;;12.5;;
49582;SDS011;36329;48.816;44.624;2023-02-28T00:30:35;22;;;12;;
49582;SDS011;36329;48.816;44.624;2023-02-28T00:33:37;25.9;;;11.9;;
49582;SDS011;36329;48.816;44.624;2023-02-28T00:36:39;22.7;;;12.4;;
49582;SDS011;36329;48.816;44.624;2023-02-28T00:39:42;21.9;;;12.2;;
49582;SDS011;36329;48.816;44.624;2023-02-28T00:42:44;21.6;;;12.7;;
49582;SDS011;36329;48.816;44.624;2023-02-28T00:45:46;22.9;;;12.6;;
49582;SDS011;36329;48.816;44.624;2023-02-28T00:48:48;23.4;;;12.5;;
49582;SDS011;36329;48.816;44.624;2023-02-28T00:51:50;22.8;;;12;;
49582;SDS011;36329;48.816;44.624;2023-02-28T00:54:53;22.7;;;12.2;;
49582;SDS011;36329;48.816;44.624;2023-02-28T00:57:55;23.2;;;11.5;;
49582;SDS011;36329;48.816;44.624;2023-02-28T01:00:57;22.7;;;11.7;;
49582;SDS011;36329;48.816;44.624;2023-02-28T01:04:00;26.1;;;11.6;;
49582;SDS011;36329;48.816;44.624;2023-02-28T01:07:08;22.9;;;11.7;;
49582;SDS011;36329;48.816;44.624;2023-02-28T01:10:10;23.9;;;11.8;;
49582;SDS011;36329;48.816;44.624;2023-02-28T01:13:14;25.8;;;11.9;;
49582;SDS011;36329;48.816;44.624;2023-02-28T01:16:18;25;;;12;;
49582;SDS011;36329;48.816;44.624;2023-02-28T01:19:21;23.4;;;11.7;;
49582;SDS011;36329;48.816;44.624;2023-02-28T01:22:23;27;;;12.8;;
49582;SDS011;36329;48.816;44.624;2023-02-28T01:25:26;27.7;;;13.3;;
49582;SDS011;36329;48.816;44.624;2023-02-28T01:28:27;26.3;;;12.5;;
49582;SDS011;36329;48.816;44.624;2023-02-28T01:31:30;27.2;;;14.1;;
49582;SDS011;36329;48.816;44.624;2023-02-28T01:34:32;26.3;;;13.6;;
49582;SDS011;36329;48.816;44.624;2023-02-28T01:37:34;32.5;;;14;;
49582;SDS011;36329;48.816;44.624;2023-02-28T01:40:36;26.3;;;13.4;;
49582;SDS011;36329;48.816;44.624;2023-02-28T01:46:57;28.5;;;14.7;;
49582;SDS011;36329;48.816;44.624;2023-02-28T01:50:00;32.5;;;15.2;;
49582;SDS011;36329;48.816;44.624;2023-02-28T01:53:07;32.1;;;14.8;;
49582;SDS011;36329;48.816;44.624;2023-02-28T01:56:16;31.1;;;15;;
49582;SDS011;36329;48.816;44.624;2023-02-28T01:59:23;28.1;;;13.9;;
49582;SDS011;36329;48.816;44.624;2023-02-28T02:02:29;27.5;;;14.3;;
49582;SDS011;36329;48.816;44.624;2023-02-28T02:05:32;29.1;;;14.4;;
49582;SDS011;36329;48.816;44.624;2023-02-28T02:08:34;28.9;;;13.4;;
49582;SDS011;36329;48.816;44.624;2023-02-28T02:11:39;26.9;;;13.7;;
49582;SDS011;36329;48.816;44.624;2023-02-28T02:14:48;27.3;;;13;;
49582;SDS011;36329;48.816;44.624;2023-02-28T02:18:00;26.8;;;12.8;;
49582;SDS011;36329;48.816;44.624;2023-02-28T02:21:12;27.5;;;13;;
49582;SDS011;36329;48.816;44.624;2023-02-28T02:24:30;26.7;;;12.7;;
49582;SDS011;36329;48.816;44.624;2023-02-28T02:31:29;28.7;;;12.5;;
49582;SDS011;36329;48.816;44.624;2023-02-28T02:34:41;25.5;;;11.2;;
49582;SDS011;36329;48.816;44.624;2023-02-28T02:37:50;23.3;;;10.5;;
49582;SDS011;36329;48.816;44.624;2023-02-28T02:40:59;21.7;;;9.9;;
49582;SDS011;36329;48.816;44.624;2023-02-28T02:44:10;25.5;;;9.3;;
49582;SDS011;36329;48.816;44.624;2023-02-28T02:47:19;22.9;;;9.2;;
49582;SDS011;36329;48.816;44.624;2023-02-28T02:50:26;18.5;;;8.5;;
49582;SDS011;36329;48.816;44.624;2023-02-28T02:53:35;19;;;8.3;;
49582;SDS011;36329;48.816;44.624;2023-02-28T02:56:42;16.8;;;7.9;;
49582;SDS011;36329;48.816;44.624;2023-02-28T02:59:47;20.1;;;8.6;;
49582;SDS011;36329;48.816;44.624;2023-02-28T03:02:52;21.7;;;8.2;;
49582;SDS011;36329;48.816;44.624;2023-02-28T03:05:59;23.1;;;8.4;;
49582;SDS011;36329;48.816;44.624;2023-02-28T03:09:02;19.7;;;8.1;;
49582;SDS011;36329;48.816;44.624;2023-02-28T03:12:06;22.7;;;8.6;;
49582;SDS011;36329;48.816;44.624;2023-02-28T03:15:16;24;;;8.1;;
49582;SDS011;36329;48.816;44.624;2023-02-28T03:18:36;31.2;;;8.4;;
49582;SDS011;36329;48.816;44.624;2023-02-28T03:21:50;23.3;;;8.4;;
49582;SDS011;36329;48.816;44.624;2023-02-28T03:25:03;28.2;;;8.7;;
49582;SDS011;36329;48.816;44.624;2023-02-28T03:28:12;26.2;;;8.1;;
49582;SDS011;36329;48.816;44.624;2023-02-28T03:31:22;24.5;;;8;;
49582;SDS011;36329;48.816;44.624;2023-02-28T03:34:31;18.4;;;7.5;;
49582;SDS011;36329;48.816;44.624;2023-02-28T03:37:41;24.2;;;8.1;;
49582;SDS011;36329;48.816;44.624;2023-02-28T03:40:48;19.3;;;8;;
49582;SDS011;36329;48.816;44.624;2023-02-28T03:43:53;24.9;;;7.9;;
49582;SDS011;36329;48.816;44.624;2023-02-28T03:46:58;22.2;;;8;;
49582;SDS011;36329;48.816;44.624;2023-02-28T03:50:19;16.5;;;7.4;;
49582;SDS011;36329;48.816;44.624;2023-02-28T03:53:37;17.3;;;7.6;;
49582;SDS011;36329;48.816;44.624;2023-02-28T03:56:47;21.4;;;7.8;;
49582;SDS011;36329;48.816;44.624;2023-02-28T03:59:55;20.9;;;6.9;;
49582;SDS011;36329;48.816;44.624;2023-02-28T04:03:06;18.5;;;7.1;;
49582;SDS011;36329;48.816;44.624;2023-02-28T04:06:22;22.3;;;7.8;;
49582;SDS011;36329;48.816;44.624;2023-02-28T04:09:43;21;;;7.1;;
49582;SDS011;36329;48.816;44.624;2023-02-28T04:12:47;23.2;;;7.4;;
49582;SDS011;36329;48.816;44.624;2023-02-28T04:15:50;19.3;;;6.8;;
49582;SDS011;36329;48.816;44.624;2023-02-28T04:18:53;22.5;;;7;;
49582;SDS011;36329;48.816;44.624;2023-02-28T04:21:55;26.1;;;7;;
49582;SDS011;36329;48.816;44.624;2023-02-28T04:25:22;26.7;;;7.5;;
49582;SDS011;36329;48.816;44.624;2023-02-28T04:28:25;23;;;6.7;;
49582;SDS011;36329;48.816;44.624;2023-02-28T04:31:35;27.7;;;7;;
49582;SDS011;36329;48.816;44.624;2023-02-28T04:34:49;24.4;;;6.6;;
49582;SDS011;36329;48.816;44.624;2023-02-28T04:37:56;24.2;;;6.9;;
49582;SDS011;36329;48.816;44.624;2023-02-28T04:41:06;28.4;;;7.4;;
49582;SDS011;36329;48.816;44.624;2023-02-28T04:44:20;27.5;;;7.1;;
49582;SDS011;36329;48.816;44.624;2023-02-28T04:47:24;24.5;;;6.5;;
49582;SDS011;36329;48.816;44.624;2023-02-28T04:50:32;23.8;;;6.7;;
49582;SDS011;36329;48.816;44.624;2023-02-28T04:53:36;23.2;;;6.9;;
49582;SDS011;36329;48.816;44.624;2023-02-28T04:56:47;29;;;7.5;;
49582;SDS011;36329;48.816;44.624;2023-02-28T04:59:50;17.9;;;6.3;;
49582;SDS011;36329;48.816;44.624;2023-02-28T05:02:53;21;;;6.6;;
49582;SDS011;36329;48.816;44.624;2023-02-28T05:06:00;22.9;;;6.8;;
49582;SDS011;36329;48.816;44.624;2023-02-28T05:09:09;18;;;6.6;;
49582;SDS011;36329;48.816;44.624;2023-02-28T05:12:13;18;;;6.2;;
49582;SDS011;36329;48.816;44.624;2023-02-28T05:15:32;18.2;;;6.6;;
49582;SDS011;36329;48.816;44.624;2023-02-28T05:18:46;15.6;;;5.7;;
49582;SDS011;36329;48.816;44.624;2023-02-28T05:22:11;14.7;;;5.7;;
49582;SDS011;36329;48.816;44.624;2023-02-28T05:25:22;15.2;;;6;;
49582;SDS011;36329;48.816;44.624;2023-02-28T05:28:25;15.4;;;5.7;;
49582;SDS011;36329;48.816;44.624;2023-02-28T05:31:34;11.9;;;5.5;;
49582;SDS011;36329;48.816;44.624;2023-02-28T05:34:40;13.1;;;5.5;;
49582;SDS011;36329;48.816;44.624;2023-02-28T05:37:43;13.8;;;5.9;;
49582;SDS011;36329;48.816;44.624;2023-02-28T05:40:52;13.4;;;6.3;;
49582;SDS011;36329;48.816;44.624;2023-02-28T05:43:55;14.4;;;5.9;;
49582;SDS011;36329;48.816;44.624;2023-02-28T05:46:58;11.4;;;5.1;;
49582;SDS011;36329;48.816;44.624;2023-02-28T05:50:03;9.5;;;4.7;;
49582;SDS011;36329;48.816;44.624;2023-02-28T05:53:11;10.4;;;4.5;;
49582;SDS011;36329;48.816;44.624;2023-02-28T05:56:19;9.4;;;4.2;;
49582;SDS011;36329;48.816;44.624;2023-02-28T05:59:33;8.8;;;4.5;;
49582;SDS011;36329;48.816;44.624;2023-02-28T06:02:36;7;;;3.6;;
49582;SDS011;36329;48.816;44.624;2023-02-28T06:05:46;7;;;3.5;;
49582;SDS011;36329;48.816;44.624;2023-02-28T06:08:49;5.2;;;2.7;;
49582;SDS011;36329;48.816;44.624;2023-02-28T06:12:04;3.9;;;2.5;;
49582;SDS011;36329;48.816;44.624;2023-02-28T06:15:12;4.9;;;2.8;;
49582;SDS011;36329;48.816;44.624;2023-02-28T06:18:16;3.9;;;2.5;;
49582;SDS011;36329;48.816;44.624;2023-02-28T06:21:25;4.2;;;2.6;;
49582;SDS011;36329;48.816;44.624;2023-02-28T06:24:29;5.6;;;2.6;;
49582;SDS011;36329;48.816;44.624;2023-02-28T06:27:37;3.7;;;2.4;;
49582;SDS011;36329;48.816;44.624;2023-02-28T06:30:46;4;;;2.2;;
49582;SDS011;36329;48.816;44.624;2023-02-28T06:33:50;3.3;;;2;;
49582;SDS011;36329;48.816;44.624;2023-02-28T06:37:16;2.8;;;2;;
49582;SDS011;36329;48.816;44.624;2023-02-28T06:40:26;4.3;;;2.2;;
49582;SDS011;36329;48.816;44.624;2023-02-28T06:46:53;3.8;;;2.1;;
49582;SDS011;36329;48.816;44.624;2023-02-28T06:49:56;2.2;;;1.7;;
49582;SDS011;36329;48.816;44.624;2023-02-28T06:52:58;3.9;;;2.1;;
49582;SDS011;36329;48.816;44.624;2023-02-28T06:56:03;2.4;;;2;;
49582;SDS011;36329;48.816;44.624;2023-02-28T06:59:06;3.2;;;2.2;;
49582;SDS011;36329;48.816;44.624;2023-02-28T07:02:10;2.4;;;1.9;;
49582;SDS011;36329;48.816;44.624;2023-02-28T07:05:14;2.7;;;2;;
49582;SDS011;36329;48.816;44.624;2023-02-28T07:08:16;2.9;;;2.2;;
49582;SDS011;36329;48.816;44.624;2023-02-28T07:11:20;2.2;;;2;;
49582;SDS011;36329;48.816;44.624;2023-02-28T07:14:36;2.3;;;1.9;;
49582;SDS011;36329;48.816;44.624;2023-02-28T07:17:50;2.7;;;2;;
49582;SDS011;36329;48.816;44.624;2023-02-28T07:21:02;3.2;;;2.3;;
49582;SDS011;36329;48.816;44.624;2023-02-28T07:24:06;2.2;;;1.9;;
49582;SDS011;36329;48.816;44.624;2023-02-28T07:27:21;3.5;;;2;;
49582;SDS011;36329;48.816;44.624;2023-02-28T07:30:27;2.6;;;2.1;;
49582;SDS011;36329;48.816;44.624;2023-02-28T07:33:31;3.1;;;2.3;;
49582;SDS011;36329;48.816;44.624;2023-02-28T07:36:36;2.8;;;2.4;;
49582;SDS011;36329;48.816;44.624;2023-02-28T07:39:41;3.3;;;2.3;;
49582;SDS011;36329;48.816;44.624;2023-02-28T07:42:45;4.6;;;2.7;;
49582;SDS011;36329;48.816;44.624;2023-02-28T07:45:49;2.9;;;2.6;;
49582;SDS011;36329;48.816;44.624;2023-02-28T07:48:52;4.9;;;2.4;;
49582;SDS011;36329;48.816;44.624;2023-02-28T07:51:59;3;;;2.3;;
49582;SDS011;36329;48.816;44.624;2023-02-28T07:55:13;3.3;;;2.5;;
49582;SDS011;36329;48.816;44.624;2023-02-28T07:58:16;3.3;;;2.5;;
49582;SDS011;36329;48.816;44.624;2023-02-28T08:01:19;3.6;;;2.7;;
49582;SDS011;36329;48.816;44.624;2023-02-28T08:04:28;2.5;;;2;;
49582;SDS011;36329;48.816;44.624;2023-02-28T08:07:48;3;;;2.3;;
49582;SDS011;36329;48.816;44.624;2023-02-28T08:11:06;2.8;;;2.1;;
49582;SDS011;36329;48.816;44.624;2023-02-28T08:14:13;3.8;;;2.3;;
49582;SDS011;36329;48.816;44.624;2023-02-28T08:17:15;3.2;;;2.3;;
49582;SDS011;36329;48.816;44.624;2023-02-28T08:20:25;2.6;;;2.1;;
49582;SDS011;36329;48.816;44.624;2023-02-28T08:23:33;2.9;;;2.5;;
49582;SDS011;36329;48.816;44.624;2023-02-28T08:26:37;2.8;;;2.3;;
49582;SDS011;36329;48.816;44.624;2023-02-28T08:29:55;4;;;2.5;;
49582;SDS011;36329;48.816;44.624;2023-02-28T08:33:09;4;;;2.5;;
49582;SDS011;36329;48.816;44.624;2023-02-28T08:36:22;4.5;;;2.2;;
49582;SDS011;36329;48.816;44.624;2023-02-28T08:39:37;5.7;;;2.6;;
49582;SDS011;36329;48.816;44.624;2023-02-28T08:42:41;4.1;;;2.8;;
49582;SDS011;36329;48.816;44.624;2023-02-28T08:45:51;4.3;;;3.1;;
49582;SDS011;36329;48.816;44.624;2023-02-28T08:48:56;3.4;;;2.8;;
49582;SDS011;36329;48.816;44.624;2023-02-28T08:52:10;3.4;;;2.3;;
49582;SDS011;36329;48.816;44.624;2023-02-28T08:55:18;3.7;;;2.5;;
49582;SDS011;36329;48.816;44.624;2023-02-28T08:58:31;3.5;;;2.8;;
49582;SDS011;36329;48.816;44.624;2023-02-28T09:01:36;3.2;;;2.6;;
49582;SDS011;36329;48.816;44.624;2023-02-28T09:04:47;3.6;;;2.7;;
49582;SDS011;36329;48.816;44.624;2023-02-28T09:07:55;5.1;;;3.5;;
49582;SDS011;36329;48.816;44.624;2023-02-28T09:11:02;7.2;;;4;;
49582;SDS011;36329;48.816;44.624;2023-02-28T09:14:13;7.4;;;4.2;;
49582;SDS011;36329;48.816;44.624;2023-02-28T09:17:40;6.5;;;4.1;;
49582;SDS011;36329;48.816;44.624;2023-02-28T09:20:58;4.6;;;3;;
49582;SDS011;36329;48.816;44.624;2023-02-28T09:24:08;4.3;;;3;;
49582;SDS011;36329;48.816;44.624;2023-02-28T09:27:11;3.9;;;3;;
49582;SDS011;36329;48.816;44.624;2023-02-28T09:30:18;4.4;;;2.9;;
49582;SDS011;36329;48.816;44.624;2023-02-28T09:33:34;4.4;;;3.1;;
49582;SDS011;36329;48.816;44.624;2023-02-28T09:36:38;4.2;;;2.7;;
49582;SDS011;36329;48.816;44.624;2023-02-28T09:39:41;3.7;;;2.7;;
49582;SDS011;36329;48.816;44.624;2023-02-28T09:43:14;4.2;;;2.9;;
49582;SDS011;36329;48.816;44.624;2023-02-28T09:46:32;3.2;;;2.5;;
49582;SDS011;36329;48.816;44.624;2023-02-28T09:49:56;4.3;;;2.9;;
49582;SDS011;36329;48.816;44.624;2023-02-28T09:53:12;5.1;;;2.8;;
49582;SDS011;36329;48.816;44.624;2023-02-28T09:56:22;4.2;;;2.8;;
49582;SDS011;36329;48.816;44.624;2023-02-28T09:59:44;3.8;;;2.7;;
49582;SDS011;36329;48.816;44.624;2023-02-28T10:03:11;3.8;;;2.9;;
49582;SDS011;36329;48.816;44.624;2023-02-28T10:09:53;3.1;;;2.6;;
49582;SDS011;36329;48.816;44.624;2023-02-28T10:13:02;4;;;2.8;;
49582;SDS011;36329;48.816;44.624;2023-02-28T10:16:29;5.8;;;2.9;;
49582;SDS011;36329;48.816;44.624;2023-02-28T10:19:58;4.4;;;3.1;;
49582;SDS011;36329;48.816;44.624;2023-02-28T10:23:27;6.6;;;3.3;;
49582;SDS011;36329;48.816;44.624;2023-02-28T10:26:52;4.2;;;3.2;;
49582;SDS011;36329;48.816;44.624;2023-02-28T10:30:09;5.5;;;3.2;;
49582;SDS011;36329;48.816;44.624;2023-02-28T10:33:17;4.6;;;3.2;;
49582;SDS011;36329;48.816;44.624;2023-02-28T10:36:29;4.6;;;3.5;;
49582;SDS011;36329;48.816;44.624;2023-02-28T10:39:38;6.4;;;3.8;;
49582;SDS011;36329;48.816;44.624;2023-02-28T10:43:04;6.6;;;4;;
49582;SDS011;36329;48.816;44.624;2023-02-28T10:46:24;6.8;;;4.1;;
49582;SDS011;36329;48.816;44.624;2023-02-28T10:49:32;6.6;;;4.1;;
49582;SDS011;36329;48.816;44.624;2023-02-28T10:52:47;7.6;;;4.2;;
49582;SDS011;36329;48.816;44.624;2023-02-28T10:56:03;6.9;;;4.2;;
49582;SDS011;36329;48.816;44.624;2023-02-28T11:02:41;7.3;;;4.2;;
49582;SDS011;36329;48.816;44.624;2023-02-28T11:05:47;5.7;;;4.7;;
49582;SDS011;36329;48.816;44.624;2023-02-28T11:09:15;6.6;;;4.7;;
49582;SDS011;36329;48.816;44.624;2023-02-28T11:12:38;5.1;;;3.9;;
49582;SDS011;36329;48.816;44.624;2023-02-28T11:15:41;4.5;;;3.5;;
49582;SDS011;36329;48.816;44.624;2023-02-28T11:18:56;5.4;;;3.5;;
49582;SDS011;36329;48.816;44.624;2023-02-28T11:22:10;4.3;;;3.2;;
49582;SDS011;36329;48.816;44.624;2023-02-28T11:25:29;4.1;;;3.1;;
49582;SDS011;36329;48.816;44.624;2023-02-28T11:28:49;4.1;;;3.2;;
49582;SDS011;36329;48.816;44.624;2023-02-28T11:32:31;4.4;;;3;;
49582;SDS011;36329;48.816;44.624;2023-02-28T11:35:42;3.6;;;2.8;;
49582;SDS011;36329;48.816;44.624;2023-02-28T11:38:46;3;;;2.7;;
49582;SDS011;36329;48.816;44.624;2023-02-28T11:41:59;5.8;;;3;;
49582;SDS011;36329;48.816;44.624;2023-02-28T11:49:10;6;;;3.6;;
49582;SDS011;36329;48.816;44.624;2023-02-28T11:52:29;4.4;;;3.1;;
49582;SDS011;36329;48.816;44.624;2023-02-28T11:55:43;4.5;;;3.5;;
49582;SDS011;36329;48.816;44.624;2023-02-28T11:59:12;3.4;;;2.9;;
49582;SDS011;36329;48.816;44.624;2023-02-28T12:02:31;3.5;;;2.8;;
49582;SDS011;36329;48.816;44.624;2023-02-28T12:05:56;5;;;3.5;;
49582;SDS011;36329;48.816;44.624;2023-02-28T12:09:13;4.7;;;3.2;;
49582;SDS011;36329;48.816;44.624;2023-02-28T12:12:36;4.1;;;3.1;;
49582;SDS011;36329;48.816;44.624;2023-02-28T12:16:01;4.2;;;3.1;;
49582;SDS011;36329;48.816;44.624;2023-02-28T12:19:24;4.6;;;3;;
49582;SDS011;36329;48.816;44.624;2023-02-28T12:23:10;3.9;;;3.1;;
49582;SDS011;36329;48.816;44.624;2023-02-28T12:26:53;5.1;;;3.4;;
49582;SDS011;36329;48.816;44.624;2023-02-28T12:30:28;5.6;;;3.9;;
49582;SDS011;36329;48.816;44.624;2023-02-28T12:33:51;5.5;;;3.8;;
49582;SDS011;36329;48.816;44.624;2023-02-28T12:37:04;5.6;;;3.4;;
49582;SDS011;36329;48.816;44.624;2023-02-28T12:40:42;6.2;;;3.8;;
49582;SDS011;36329;48.816;44.624;2023-02-28T12:47:19;5.4;;;4.1;;
49582;SDS011;36329;48.816;44.624;2023-02-28T12:50:33;5.8;;;4.6;;
49582;SDS011;36329;48.816;44.624;2023-02-28T12:53:54;7.7;;;5.6;;
49582;SDS011;36329;48.816;44.624;2023-02-28T12:57:12;10.3;;;6.9;;
49582;SDS011;36329;48.816;44.624;2023-02-28T13:03:47;7.2;;;5.3;;
49582;SDS011;36329;48.816;44.624;2023-02-28T13:07:31;7.6;;;5.4;;
49582;SDS011;36329;48.816;44.624;2023-02-28T13:14:46;8.8;;;6.2;;
49582;SDS011;36329;48.816;44.624;2023-02-28T13:21:45;8.5;;;5.5;;
49582;SDS011;36329;48.816;44.624;2023-02-28T13:25:01;11;;;6.1;;
49582;SDS011;36329;48.816;44.624;2023-02-28T13:35:43;7.5;;;4.3;;
49582;SDS011;36329;48.816;44.624;2023-02-28T13:42:46;7.1;;;4.7;;
49582;SDS011;36329;48.816;44.624;2023-02-28T13:46:10;12.2;;;5.1;;
49582;SDS011;36329;48.816;44.624;2023-02-28T13:49:29;10.9;;;5.2;;
49582;SDS011;36329;48.816;44.624;2023-02-28T13:52:37;12.5;;;5.5;;
49582;SDS011;36329;48.816;44.624;2023-02-28T13:56:06;13.8;;;5.6;;
49582;SDS011;36329;48.816;44.624;2023-02-28T13:59:22;10.2;;;5.8;;
49582;SDS011;36329;48.816;44.624;2023-02-28T14:02:44;7.7;;;5.6;;
49582;SDS011;36329;48.816;44.624;2023-02-28T14:06:18;10.1;;;6.2;;
49582;SDS011;36329;48.816;44.624;2023-02-28T14:10:06;11.4;;;6.2;;
49582;SDS011;36329;48.816;44.624;2023-02-28T14:20:15;9.5;;;6.6;;
49582;SDS011;36329;48.816;44.624;2023-02-28T14:27:18;9.3;;;6.6;;
49582;SDS011;36329;48.816;44.624;2023-02-28T14:38:00;11.2;;;7.1;;
49582;SDS011;36329;48.816;44.624;2023-02-28T14:41:53;11.5;;;6.3;;
49582;SDS011;36329;48.816;44.624;2023-02-28T14:45:28;9.9;;;6.6;;
49582;SDS011;36329;48.816;44.624;2023-02-28T14:48:46;9.9;;;6.5;;
49582;SDS011;36329;48.816;44.624;2023-02-28T14:51:49;10.3;;;6.9;;
49582;SDS011;36329;48.816;44.624;2023-02-28T14:55:15;10.4;;;6.4;;
49582;SDS011;36329;48.816;44.624;2023-02-28T14:58:37;9.5;;;6.3;;
49582;SDS011;36329;48.816;44.624;2023-02-28T15:01:44;9.3;;;6.5;;
49582;SDS011;36329;48.816;44.624;2023-02-28T15:05:00;11.1;;;6.9;;
49582;SDS011;36329;48.816;44.624;2023-02-28T15:11:58;14.5;;;7.4;;
49582;SDS011;36329;48.816;44.624;2023-02-28T15:15:14;13.9;;;7;;
49582;SDS011;36329;48.816;44.624;2023-02-28T15:18:29;10.6;;;6.4;;
49582;SDS011;36329;48.816;44.624;2023-02-28T15:21:47;14.1;;;7.2;;
49582;SDS011;36329;48.816;44.624;2023-02-28T15:25:15;13.3;;;7.1;;
49582;SDS011;36329;48.816;44.624;2023-02-28T15:28:40;12.1;;;6.9;;
49582;SDS011;36329;48.816;44.624;2023-02-28T15:31:45;10.9;;;7.1;;
49582;SDS011;36329;48.816;44.624;2023-02-28T15:34:54;10.4;;;6.6;;
49582;SDS011;36329;48.816;44.624;2023-02-28T15:38:14;11;;;6.7;;
49582;SDS011;36329;48.816;44.624;2023-02-28T15:41:26;12.5;;;6.8;;
49582;SDS011;36329;48.816;44.624;2023-02-28T15:44:34;11.4;;;6.9;;
49582;SDS011;36329;48.816;44.624;2023-02-28T15:48:01;9.7;;;6.5;;
49582;SDS011;36329;48.816;44.624;2023-02-28T15:51:06;9.2;;;6.2;;
49582;SDS011;36329;48.816;44.624;2023-02-28T15:54:19;9.9;;;6.3;;
49582;SDS011;36329;48.816;44.624;2023-02-28T15:57:43;8.6;;;5.8;;
49582;SDS011;36329;48.816;44.624;2023-02-28T16:01:23;8.7;;;6.1;;
49582;SDS011;36329;48.816;44.624;2023-02-28T16:08:11;8.7;;;5.5;;
49582;SDS011;36329;48.816;44.624;2023-02-28T16:11:32;7.8;;;5.7;;
49582;SDS011;36329;48.816;44.624;2023-02-28T16:14:48;9.1;;;5.9;;
49582;SDS011;36329;48.816;44.624;2023-02-28T16:18:25;8;;;6;;
49582;SDS011;36329;48.816;44.624;2023-02-28T16:21:38;9.5;;;6.2;;
49582;SDS011;36329;48.816;44.624;2023-02-28T16:24:51;8.2;;;5.9;;
49582;SDS011;36329;48.816;44.624;2023-02-28T16:28:12;8.5;;;5.8;;
49582;SDS011;36329;48.816;44.624;2023-02-28T16:31:24;8.6;;;5.9;;
49582;SDS011;36329;48.816;44.624;2023-02-28T16:38:19;8.6;;;5.8;;
49582;SDS011;36329;48.816;44.624;2023-02-28T16:41:31;8.4;;;5.9;;
49582;SDS011;36329;48.816;44.624;2023-02-28T16:44:43;9.5;;;6.1;;
49582;SDS011;36329;48.816;44.624;2023-02-28T16:47:50;9.5;;;6.3;;
49582;SDS011;36329;48.816;44.624;2023-02-28T16:51:07;11.5;;;6.6;;
49582;SDS011;36329;48.816;44.624;2023-02-28T16:54:35;8.8;;;6.4;;
49582;SDS011;36329;48.816;44.624;2023-02-28T16:58:00;9.8;;;6.6;;
49582;SDS011;36329;48.816;44.624;2023-02-28T17:01:21;9.1;;;6.5;;
49582;SDS011;36329;48.816;44.624;2023-02-28T17:04:48;9.2;;;6.3;;
49582;SDS011;36329;48.816;44.624;2023-02-28T17:11:38;8.1;;;5.9;;
49582;SDS011;36329;48.816;44.624;2023-02-28T17:21:45;9.9;;;6.5;;
49582;SDS011;36329;48.816;44.624;2023-02-28T17:25:19;10.8;;;6.7;;
49582;SDS011;36329;48.816;44.624;2023-02-28T17:28:26;9.1;;;6.1;;
49582;SDS011;36329;48.816;44.624;2023-02-28T17:35:04;9.4;;;6.1;;
49582;SDS011;36329;48.816;44.624;2023-02-28T17:38:13;11.7;;;6.3;;
49582;SDS011;36329;48.816;44.624;2023-02-28T17:41:22;7.9;;;5.8;;
49582;SDS011;36329;48.816;44.624;2023-02-28T17:44:25;9.9;;;6;;
49582;SDS011;36329;48.816;44.624;2023-02-28T17:47:27;9.7;;;6.1;;
49582;SDS011;36329;48.816;44.624;2023-02-28T17:50:30;10.3;;;6.1;;
49582;SDS011;36329;48.816;44.624;2023-02-28T17:53:33;9.7;;;6.8;;
49582;SDS011;36329;48.816;44.624;2023-02-28T17:56:35;10.6;;;6.4;;
49582;SDS011;36329;48.816;44.624;2023-02-28T17:59:40;10;;;6.4;;
49582;SDS011;36329;48.816;44.624;2023-02-28T18:02:42;8.7;;;6.1;;
49582;SDS011;36329;48.816;44.624;2023-02-28T18:05:46;9;;;5.8;;
49582;SDS011;36329;48.816;44.624;2023-02-28T18:08:50;9.7;;;5.9;;
49582;SDS011;36329;48.816;44.624;2023-02-28T18:12:00;7.7;;;4.9;;
49582;SDS011;36329;48.816;44.624;2023-02-28T18:15:03;7.9;;;5;;
49582;SDS011;36329;48.816;44.624;2023-02-28T18:18:05;7.9;;;5;;
49582;SDS011;36329;48.816;44.624;2023-02-28T18:21:13;8.2;;;4.7;;
49582;SDS011;36329;48.816;44.624;2023-02-28T18:24:18;6.6;;;4.2;;
49582;SDS011;36329;48.816;44.624;2023-02-28T18:27:21;7.1;;;4.4;;
49582;SDS011;36329;48.816;44.624;2023-02-28T18:30:23;6.1;;;4.5;;
49582;SDS011;36329;48.816;44.624;2023-02-28T18:33:26;5.8;;;4;;
49582;SDS011;36329;48.816;44.624;2023-02-28T18:36:28;6.3;;;4.3;;
49582;SDS011;36329;48.816;44.624;2023-02-28T18:39:30;6.8;;;4.3;;
49582;SDS011;36329;48.816;44.624;2023-02-28T18:42:32;5.4;;;3.9;;
49582;SDS011;36329;48.816;44.624;2023-02-28T18:45:34;6.1;;;4.3;;
49582;SDS011;36329;48.816;44.624;2023-02-28T18:48:37;5.9;;;3.8;;
49582;SDS011;36329;48.816;44.624;2023-02-28T18:51:39;5.7;;;3.7;;
49582;SDS011;36329;48.816;44.624;2023-02-28T18:54:41;5.7;;;3.9;;
49582;SDS011;36329;48.816;44.624;2023-02-28T18:57:44;4.6;;;3.5;;
49582;SDS011;36329;48.816;44.624;2023-02-28T19:00:46;6.3;;;3.8;;
49582;SDS011;36329;48.816;44.624;2023-02-28T19:03:48;5.2;;;3.8;;
49582;SDS011;36329;48.816;44.624;2023-02-28T19:06:51;5.1;;;3.6;;
49582;SDS011;36329;48.816;44.624;2023-02-28T19:09:53;5.5;;;4.1;;
49582;SDS011;36329;48.816;44.624;2023-02-28T19:13:02;6.5;;;4;;
49582;SDS011;36329;48.816;44.624;2023-02-28T19:16:36;6.6;;;4.1;;
49582;SDS011;36329;48.816;44.624;2023-02-28T19:19:56;5.1;;;3.9;;
49582;SDS011;36329;48.816;44.624;2023-02-28T19:23:00;6.5;;;4.3;;
49582;SDS011;36329;48.816;44.624;2023-02-28T19:26:05;7.6;;;4.5;;
49582;SDS011;36329;48.816;44.624;2023-02-28T19:29:26;6.7;;;4.3;;
49582;SDS011;36329;48.816;44.624;2023-02-28T19:32:57;5.8;;;4.6;;
49582;SDS011;36329;48.816;44.624;2023-02-28T19:39:34;6.4;;;4.3;;
49582;SDS011;36329;48.816;44.624;2023-02-28T19:42:38;6.4;;;4.1;;
49582;SDS011;36329;48.816;44.624;2023-02-28T19:45:41;8;;;4.8;;
49582;SDS011;36329;48.816;44.624;2023-02-28T19:49:07;6.7;;;4.4;;
49582;SDS011;36329;48.816;44.624;2023-02-28T19:52:15;6.6;;;4.3;;
49582;SDS011;36329;48.816;44.624;2023-02-28T19:55:19;6.1;;;4;;
49582;SDS011;36329;48.816;44.624;2023-02-28T19:58:26;6.7;;;4.6;;
49582;SDS011;36329;48.816;44.624;2023-02-28T20:01:32;6.6;;;4.6;;
49582;SDS011;36329;48.816;44.624;2023-02-28T20:04:34;7.6;;;4.7;;
49582;SDS011;36329;48.816;44.624;2023-02-28T20:07:42;7.4;;;4.9;;
49582;SDS011;36329;48.816;44.624;2023-02-28T20:10:49;7.5;;;4.8;;
49582;SDS011;36329;48.816;44.624;2023-02-28T20:13:52;6.7;;;4.5;;
49582;SDS011;36329;48.816;44.624;2023-02-28T20:17:04;7.9;;;4.4;;
49582;SDS011;36329;48.816;44.624;2023-02-28T20:20:09;7.1;;;4.9;;
49582;SDS011;36329;48.816;44.624;2023-02-28T20:23:22;6;;;4.6;;
49582;SDS011;36329;48.816;44.624;2023-02-28T20:26:32;7.8;;;5.1;;
49582;SDS011;36329;48.816;44.624;2023-02-28T20:29:46;7.8;;;5.3;;
49582;SDS011;36329;48.816;44.624;2023-02-28T20:33:00;8.3;;;5.2;;
49582;SDS011;36329;48.816;44.624;2023-02-28T20:36:07;7;;;5.1;;
49582;SDS011;36329;48.816;44.624;2023-02-28T20:39:19;8.6;;;5.3;;
49582;SDS011;36329;48.816;44.624;2023-02-28T20:42:24;8.6;;;5.6;;
49582;SDS011;36329;48.816;44.624;2023-02-28T20:45:32;10.7;;;5.9;;
49582;SDS011;36329;48.816;44.624;2023-02-28T20:48:47;9.5;;;6.1;;
49582;SDS011;36329;48.816;44.624;2023-02-28T20:51:57;9.5;;;6.4;;
49582;SDS011;36329;48.816;44.624;2023-02-28T20:55:00;8.9;;;6.3;;
49582;SDS011;36329;48.816;44.624;2023-02-28T20:58:14;10.7;;;6.5;;
49582;SDS011;36329;48.816;44.624;2023-02-28T21:01:28;10.7;;;6.8;;
49582;SDS011;36329;48.816;44.624;2023-02-28T21:04:42;9.8;;;6.5;;